TAF Text Data
IDs:
Format:
Raw Decoded Include METAR

Data at: 0745 UTC 18 Sep 2021

METAR for:KSJT (San Angelo/Mathis Fl, TX, US)
Text:KSJT 180651Z AUTO 06004KT 10SM CLR 24/17 A3007 RMK AO2 SLP154 T02440167
Temperature: 24.4°C ( 76°F)
Dewpoint: 16.7°C ( 62°F) [RH = 62%]
Pressure (altimeter):30.07 inches Hg (1018.4 mb) [Sea level pressure: 1015.4 mb]
Winds:from the ENE (60 degrees) at 5 MPH (4 knots; 2.1 m/s)
Visibility:10 or more sm (16+ km)
Ceiling:at least 12,000 feet AGL
Clouds:sky clear below 12,000 feet AGL
QC Flag:automated observation with no human augmentation

TAF for:KSJT (San Angelo/Mathis Fl, TX, US) issued at 0534 UTC 18 Sep 2021
Text:KSJT 180534Z 1806/1906 10006KT P6SM SKC
Forecast period:0600 to 1200 UTC 18 September 2021
Forecast type:FROM: standard forecast or significant change
Winds:from the E (100 degrees) at 7 MPH (6 knots; 3.1 m/s)
Visibility:6 or more sm (10+ km)
Ceiling:at least 12,000 feet AGL
Clouds:clear skies
Text:FM181200 06008KT P6SM SKC
Forecast period:1200 UTC 18 September 2021 to 0600 UTC 19 September 2021
Forecast type:FROM: standard forecast or significant change
Winds:from the ENE (60 degrees) at 9 MPH (8 knots; 4.1 m/s)
Visibility:6 or more sm (10+ km)
Ceiling:at least 12,000 feet AGL
Clouds:clear skies